Time;durP1;ratioP1;P1;durP2;ratioP2;P2;SDS_P1;SDS_P2;PMS_P1;PMS_P2;Temp;Humidity;BMP_temperature;BMP_pressure;BME280_temperature;BME280_humidity;BME280_pressure;Samples;Min_cycle;Max_cycle;Signal;HPM_P1;HPM_P2
2022/11/28 00:00:31;;;;;;;9.07;6.57;;;;;;;;;;4993671;28;20708;-85
2022/11/28 00:02:58;;;;;;;11.97;6.40;;;;;;;;;;4994737;28;20215;-83
2022/11/28 00:05:27;;;;;;;9.00;6.97;;;;;;;;;;4993422;28;20243;-85
2022/11/28 00:07:55;;;;;;;7.33;6.43;;;;;;;;;;4993347;28;20660;-83
2022/11/28 00:10:22;;;;;;;8.83;6.67;;;;;;;;;;4992971;28;20239;-83
2022/11/28 00:12:49;;;;;;;8.97;7.57;;;;;;;;;;4993587;28;20208;-83
2022/11/28 00:15:16;;;;;;;10.67;7.80;;;;;;;;;;4992948;28;20258;-83
2022/11/28 00:17:43;;;;;;;9.70;7.53;;;;;;;;;;4993154;28;20698;-84
2022/11/28 00:20:10;;;;;;;9.97;7.60;;;;;;;;;;4993165;28;20262;-83
2022/11/28 00:22:39;;;;;;;11.73;7.90;;;;;;;;;;4993289;28;20803;-83
2022/11/28 00:25:06;;;;;;;8.67;7.37;;;;;;;;;;4993063;28;20260;-83
2022/11/28 00:27:34;;;;;;;8.57;7.07;;;;;;;;;;4992926;28;20208;-83
2022/11/28 00:30:01;;;;;;;8.70;7.53;;;;;;;;;;4973511;28;20223;-83
2022/11/28 00:32:28;;;;;;;8.97;7.00;;;;;;;;;;4973598;28;20242;-83
2022/11/28 00:34:55;;;;;;;9.13;7.80;;;;;;;;;;4977546;28;20207;-83
2022/11/28 00:37:22;;;;;;;9.13;8.03;;;;;;;;;;4993047;28;20629;-83
2022/11/28 00:39:51;;;;;;;12.23;7.87;;;;;;;;;;4992792;28;20212;-84
2022/11/28 00:42:19;;;;;;;10.23;8.07;;;;;;;;;;4993027;28;20239;-84
2022/11/28 00:44:47;;;;;;;10.00;8.30;;;;;;;;;;4993200;28;20330;-84
2022/11/28 00:47:14;;;;;;;12.20;8.60;;;;;;;;;;4993333;28;20736;-85
2022/11/28 00:49:41;;;;;;;10.33;8.37;;;;;;;;;;4992639;28;20216;-85
2022/11/28 00:52:08;;;;;;;9.30;7.90;;;;;;;;;;4992539;28;20716;-84
2022/11/28 00:54:35;;;;;;;10.67;7.90;;;;;;;;;;4992152;28;20212;-84
2022/11/28 00:57:04;;;;;;;9.50;7.73;;;;;;;;;;4993225;28;20730;-85
2022/11/28 00:59:31;;;;;;;9.20;8.07;;;;;;;;;;4993220;28;20742;-85
2022/11/28 01:01:58;;;;;;;10.40;7.73;;;;;;;;;;4992409;28;20242;-85
2022/11/28 01:04:26;;;;;;;10.10;8.27;;;;;;;;;;4993512;28;20215;-84
2022/11/28 01:06:53;;;;;;;9.27;7.40;;;;;;;;;;4992712;28;20328;-85
2022/11/28 01:09:22;;;;;;;12.50;8.33;;;;;;;;;;4992801;28;20215;-85
2022/11/28 01:11:49;;;;;;;9.30;7.70;;;;;;;;;;4992764;28;20247;-85
2022/11/28 01:14:18;;;;;;;9.47;7.87;;;;;;;;;;4993381;28;20222;-83
2022/11/28 01:16:46;;;;;;;9.37;7.33;;;;;;;;;;4991914;28;20238;-85
2022/11/28 01:19:13;;;;;;;9.20;7.60;;;;;;;;;;4992259;28;20669;-85
2022/11/28 01:21:40;;;;;;;12.03;7.73;;;;;;;;;;4992026;28;20333;-85
2022/11/28 01:24:08;;;;;;;10.33;7.77;;;;;;;;;;4992377;28;20221;-85
2022/11/28 01:26:35;;;;;;;8.57;7.23;;;;;;;;;;4991916;28;20235;-86
2022/11/28 01:29:02;;;;;;;8.27;7.03;;;;;;;;;;4992335;28;20205;-82
2022/11/28 01:31:31;;;;;;;11.57;7.27;;;;;;;;;;4992115;28;20240;-83
2022/11/28 01:33:58;;;;;;;8.90;7.20;;;;;;;;;;4992542;28;20843;-84
2022/11/28 01:36:26;;;;;;;10.23;7.87;;;;;;;;;;4990853;28;20246;-83
2022/11/28 01:38:53;;;;;;;10.30;7.03;;;;;;;;;;4992404;28;20210;-84
2022/11/28 01:41:21;;;;;;;9.33;7.50;;;;;;;;;;4991798;28;20245;-84
2022/11/28 01:43:58;;;;;;;8.57;7.53;;;;;;;;;;4992251;28;20211;-83
2022/11/28 01:46:26;;;;;;;9.70;7.60;;;;;;;;;;4991920;28;20243;-84
2022/11/28 01:48:56;;;;;;;9.87;7.90;;;;;;;;;;4992236;28;20206;-83
2022/11/28 01:51:23;;;;;;;9.97;7.67;;;;;;;;;;4991100;28;20246;-84
2022/11/28 01:53:50;;;;;;;10.87;8.20;;;;;;;;;;4996046;28;20864;-84
2022/11/28 01:56:19;;;;;;;9.73;8.03;;;;;;;;;;4988779;28;20236;-84
2022/11/28 01:58:48;;;;;;;11.20;8.40;;;;;;;;;;4994056;28;20215;-83
2022/11/28 02:01:16;;;;;;;9.97;7.90;;;;;;;;;;4995327;28;20258;-83
2022/11/28 02:03:45;;;;;;;10.53;8.00;;;;;;;;;;4993785;28;20215;-84
2022/11/28 02:06:14;;;;;;;10.40;7.73;;;;;;;;;;4994048;28;20243;-84
2022/11/28 02:08:41;;;;;;;10.03;8.00;;;;;;;;;;4995918;28;20575;-83
2022/11/28 02:11:17;;;;;;;10.63;8.40;;;;;;;;;;4995309;28;20246;-84
2022/11/28 02:13:48;;;;;;;8.53;7.43;;;;;;;;;;4996141;28;20210;-83
2022/11/28 02:16:26;;;;;;;10.47;8.20;;;;;;;;;;4995484;28;20243;-83
2022/11/28 02:18:58;;;;;;;8.30;7.43;;;;;;;;;;4995051;28;20207;-84
2022/11/28 02:21:32;;;;;;;11.40;8.30;;;;;;;;;;4988084;28;20243;-83
2022/11/28 02:24:11;;;;;;;11.13;8.40;;;;;;;;;;4976125;28;20225;-83
2022/11/28 02:26:59;;;;;;;10.97;8.63;;;;;;;;;;4975561;28;20246;-83
2022/11/28 02:29:41;;;;;;;10.53;8.67;;;;;;;;;;4971223;28;20211;-83
2022/11/28 02:32:14;;;;;;;10.87;8.63;;;;;;;;;;4975597;28;20247;-83
2022/11/28 02:34:46;;;;;;;11.23;8.57;;;;;;;;;;4994830;28;20212;-84
2022/11/28 02:37:16;;;;;;;10.60;8.80;;;;;;;;;;4995005;28;20236;-84
2022/11/28 02:39:46;;;;;;;11.03;9.23;;;;;;;;;;4995485;28;20215;-84
2022/11/28 02:42:17;;;;;;;11.43;8.97;;;;;;;;;;4994240;28;20242;-83
2022/11/28 02:44:48;;;;;;;11.03;9.00;;;;;;;;;;4995358;28;20253;-84
2022/11/28 02:47:19;;;;;;;10.67;9.37;;;;;;;;;;4993381;28;20227;-84
2022/11/28 02:49:49;;;;;;;12.13;8.87;;;;;;;;;;4992850;28;20211;-84
2022/11/28 02:52:19;;;;;;;11.60;9.40;;;;;;;;;;4993306;28;20285;-84
2022/11/28 02:54:47;;;;;;;10.10;8.27;;;;;;;;;;4994628;28;20227;-84
2022/11/28 02:57:14;;;;;;;11.50;9.20;;;;;;;;;;4994304;28;20239;-84
2022/11/28 02:59:47;;;;;;;13.77;9.77;;;;;;;;;;4994463;28;20219;-84
2022/11/28 03:02:16;;;;;;;11.77;9.27;;;;;;;;;;4993565;28;20250;-84
2022/11/28 03:04:50;;;;;;;12.03;9.40;;;;;;;;;;4993144;28;20731;-84
2022/11/28 03:07:22;;;;;;;9.80;8.37;;;;;;;;;;4988531;28;20223;-83
2022/11/28 03:09:55;;;;;;;12.80;9.50;;;;;;;;;;4975321;28;20664;-84
2022/11/28 03:12:26;;;;;;;13.30;9.87;;;;;;;;;;4975274;28;20651;-84
2022/11/28 03:14:55;;;;;;;10.63;8.73;;;;;;;;;;4974885;28;20216;-84
2022/11/28 03:17:28;;;;;;;14.13;9.23;;;;;;;;;;4975127;28;20834;-84
2022/11/28 03:20:00;;;;;;;12.23;9.67;;;;;;;;;;4985477;28;20740;-83
2022/11/28 03:22:29;;;;;;;11.90;9.70;;;;;;;;;;4994418;28;20773;-83
2022/11/28 03:24:58;;;;;;;11.20;9.10;;;;;;;;;;4993979;28;20669;-83
2022/11/28 03:27:28;;;;;;;11.57;9.80;;;;;;;;;;4993943;28;20224;-83
2022/11/28 03:29:57;;;;;;;13.90;9.87;;;;;;;;;;4994074;28;20193;-84
2022/11/28 03:32:26;;;;;;;13.27;9.77;;;;;;;;;;4994511;28;20592;-84
2022/11/28 03:34:57;;;;;;;12.60;9.63;;;;;;;;;;4992876;28;20703;-84
2022/11/28 03:37:27;;;;;;;12.90;9.17;;;;;;;;;;4994552;28;20196;-84
2022/11/28 03:39:58;;;;;;;13.10;9.63;;;;;;;;;;4993808;28;20214;-84
2022/11/28 03:42:27;;;;;;;11.60;9.33;;;;;;;;;;4994036;28;20623;-83
2022/11/28 03:44:56;;;;;;;12.47;9.97;;;;;;;;;;4993891;28;20217;-84
2022/11/28 03:47:25;;;;;;;14.90;10.20;;;;;;;;;;4994068;28;20231;-84
2022/11/28 03:49:55;;;;;;;13.90;10.77;;;;;;;;;;4993407;28;20216;-83
2022/11/28 03:52:26;;;;;;;14.13;10.17;;;;;;;;;;4993946;28;20243;-84
2022/11/28 03:54:56;;;;;;;12.43;10.27;;;;;;;;;;4993682;28;20211;-83
2022/11/28 03:57:25;;;;;;;16.70;9.90;;;;;;;;;;4974634;28;20199;-84
2022/11/28 03:59:54;;;;;;;13.23;10.27;;;;;;;;;;4973970;28;20216;-83
2022/11/28 04:02:24;;;;;;;12.00;9.90;;;;;;;;;;4974488;28;20240;-83
2022/11/28 04:04:54;;;;;;;12.40;9.40;;;;;;;;;;4974088;28;20302;-83
2022/11/28 04:07:24;;;;;;;14.20;9.80;;;;;;;;;;4974443;28;20217;-83
2022/11/28 04:09:53;;;;;;;13.37;10.63;;;;;;;;;;4979473;28;20216;-84
2022/11/28 04:12:24;;;;;;;11.67;9.90;;;;;;;;;;4993772;28;20227;-83
2022/11/28 04:14:54;;;;;;;12.77;9.77;;;;;;;;;;4992528;28;20196;-83
2022/11/28 04:17:24;;;;;;;13.40;10.17;;;;;;;;;;4993445;28;20551;-83
2022/11/28 04:19:52;;;;;;;12.43;10.07;;;;;;;;;;4992770;28;20198;-84
2022/11/28 04:22:22;;;;;;;12.70;10.47;;;;;;;;;;4993165;28;20228;-83
2022/11/28 04:24:52;;;;;;;13.13;9.97;;;;;;;;;;4992768;28;20675;-83
2022/11/28 04:27:22;;;;;;;13.23;10.63;;;;;;;;;;4993085;28;20353;-83
2022/11/28 04:29:52;;;;;;;13.03;10.20;;;;;;;;;;4992193;28;20786;-83
2022/11/28 04:32:20;;;;;;;14.30;10.37;;;;;;;;;;4993424;28;20276;-83
2022/11/28 04:34:51;;;;;;;13.33;10.57;;;;;;;;;;4993445;28;20215;-83
2022/11/28 04:37:18;;;;;;;11.23;7.93;;;;;;;;;;4992050;28;20230;-83
2022/11/28 04:39:47;;;;;;;13.60;10.77;;;;;;;;;;4993297;28;20234;-85
2022/11/28 04:42:17;;;;;;;12.57;9.47;;;;;;;;;;4992932;28;20707;-85
2022/11/28 04:44:46;;;;;;;11.97;9.67;;;;;;;;;;4992880;28;20241;-85
2022/11/28 04:47:14;;;;;;;12.37;9.87;;;;;;;;;;4992355;28;20838;-85
2022/11/28 04:49:41;;;;;;;13.23;9.93;;;;;;;;;;4992711;28;20254;-86
2022/11/28 04:52:10;;;;;;;14.77;10.73;;;;;;;;;;4991937;28;20241;-85
2022/11/28 04:54:41;;;;;;;14.83;10.27;;;;;;;;;;4992808;28;20206;-85
2022/11/28 04:57:12;;;;;;;14.43;10.43;;;;;;;;;;4992429;28;20775;-87
2022/11/28 04:59:41;;;;;;;13.10;10.70;;;;;;;;;;4993029;28;20587;-84
2022/11/28 05:02:09;;;;;;;14.23;9.90;;;;;;;;;;4992384;28;20245;-84
2022/11/28 05:04:38;;;;;;;12.93;9.57;;;;;;;;;;4991960;28;20220;-84
2022/11/28 05:07:06;;;;;;;14.63;9.67;;;;;;;;;;5018985;23;20265;-84
2022/11/28 05:09:33;;;;;;;13.13;9.80;;;;;;;;;;5012372;28;20689;-84
2022/11/28 05:12:00;;;;;;;11.20;9.27;;;;;;;;;;5012165;28;20234;-83
2022/11/28 05:14:28;;;;;;;13.83;10.63;;;;;;;;;;5012708;28;20211;-83
2022/11/28 05:16:55;;;;;;;13.90;9.90;;;;;;;;;;5011893;28;20737;-83
2022/11/28 05:19:22;;;;;;;11.53;10.33;;;;;;;;;;5001391;28;20219;-83
2022/11/28 05:21:52;;;;;;;12.73;10.20;;;;;;;;;;5015102;28;20728;-84
2022/11/28 05:24:19;;;;;;;15.20;10.87;;;;;;;;;;5012903;28;20577;-83
2022/11/28 05:26:46;;;;;;;12.20;10.07;;;;;;;;;;5011652;28;20246;-83
2022/11/28 05:29:13;;;;;;;15.50;11.47;;;;;;;;;;5012518;28;20304;-84
2022/11/28 05:31:40;;;;;;;12.87;9.90;;;;;;;;;;5011894;28;20249;-84
2022/11/28 05:34:07;;;;;;;14.20;11.10;;;;;;;;;;5011423;28;20203;-84
2022/11/28 05:36:35;;;;;;;13.13;10.77;;;;;;;;;;5011770;28;20247;-84
2022/11/28 05:39:03;;;;;;;14.77;10.40;;;;;;;;;;5012332;28;20314;-83
2022/11/28 05:41:31;;;;;;;14.40;11.43;;;;;;;;;;5011409;28;20234;-84
2022/11/28 05:43:59;;;;;;;15.77;11.67;;;;;;;;;;5012421;28;20222;-84
2022/11/28 05:46:28;;;;;;;13.60;10.90;;;;;;;;;;5011605;28;20510;-84
2022/11/28 05:48:55;;;;;;;14.70;10.53;;;;;;;;;;5011529;28;20207;-84
2022/11/28 05:51:22;;;;;;;14.50;10.73;;;;;;;;;;5011777;28;20250;-84
2022/11/28 05:53:49;;;;;;;14.80;11.10;;;;;;;;;;5011804;28;20263;-83
2022/11/28 05:56:18;;;;;;;16.60;10.37;;;;;;;;;;5011390;28;20246;-84
2022/11/28 05:58:45;;;;;;;12.50;9.83;;;;;;;;;;5011376;28;20210;-84
2022/11/28 06:01:13;;;;;;;14.60;10.67;;;;;;;;;;5011568;28;20237;-84
2022/11/28 06:03:40;;;;;;;15.27;10.60;;;;;;;;;;5012170;28;20206;-84
2022/11/28 06:06:10;;;;;;;15.13;10.80;;;;;;;;;;5011217;28;20734;-84
2022/11/28 06:08:37;;;;;;;13.33;9.83;;;;;;;;;;5011479;28;20220;-83
2022/11/28 06:11:04;;;;;;;13.27;10.20;;;;;;;;;;5013848;28;20588;-84
2022/11/28 06:13:33;;;;;;;12.27;9.23;;;;;;;;;;5011309;28;20206;-84
2022/11/28 06:16:00;;;;;;;16.87;10.20;;;;;;;;;;5014801;28;20236;-83
2022/11/28 06:18:27;;;;;;;18.80;11.00;;;;;;;;;;5031246;28;20209;-82
2022/11/28 06:20:54;;;;;;;25.83;11.43;;;;;;;;;;5031260;28;20242;-83
2022/11/28 06:23:21;;;;;;;15.20;11.50;;;;;;;;;;5031234;28;20209;-83
2022/11/28 06:25:48;;;;;;;14.07;11.13;;;;;;;;;;5030690;28;20717;-83
2022/11/28 06:28:15;;;;;;;14.97;11.07;;;;;;;;;;5010610;28;20227;-83
2022/11/28 06:30:44;;;;;;;13.87;10.90;;;;;;;;;;5028444;28;20691;-83
2022/11/28 06:33:12;;;;;;;15.87;11.40;;;;;;;;;;5024342;28;20209;-83
2022/11/28 06:35:39;;;;;;;13.43;9.83;;;;;;;;;;5021673;28;20727;-83
2022/11/28 06:38:06;;;;;;;18.00;11.13;;;;;;;;;;5012531;28;20209;-83
2022/11/28 06:40:33;;;;;;;16.93;11.07;;;;;;;;;;5020288;28;20241;-83
2022/11/28 06:43:00;;;;;;;16.50;10.87;;;;;;;;;;5015684;28;20213;-84
2022/11/28 06:45:27;;;;;;;12.20;10.00;;;;;;;;;;5016353;28;20237;-84
2022/11/28 06:47:56;;;;;;;13.97;10.10;;;;;;;;;;5015460;28;20683;-84
2022/11/28 06:50:23;;;;;;;14.13;10.47;;;;;;;;;;5014180;28;20229;-83
2022/11/28 06:52:50;;;;;;;16.23;10.40;;;;;;;;;;5025109;28;20203;-83
2022/11/28 06:55:17;;;;;;;13.40;11.07;;;;;;;;;;5034114;28;20239;-84
2022/11/28 06:57:45;;;;;;;15.93;11.70;;;;;;;;;;4994795;28;20386;-83
2022/11/28 07:00:13;;;;;;;12.43;9.70;;;;;;;;;;4994513;28;20232;-84
2022/11/28 07:02:40;;;;;;;14.63;10.83;;;;;;;;;;5013058;28;20261;-84
2022/11/28 07:05:10;;;;;;;12.53;10.13;;;;;;;;;;5010720;28;20207;-82
2022/11/28 07:07:37;;;;;;;15.57;10.47;;;;;;;;;;5013851;28;20281;-83
2022/11/28 07:10:05;;;;;;;14.63;10.63;;;;;;;;;;5014043;28;20218;-83
2022/11/28 07:12:32;;;;;;;14.03;10.00;;;;;;;;;;5014647;28;20218;-83
2022/11/28 07:14:59;;;;;;;15.73;11.00;;;;;;;;;;5013809;28;20202;-83
2022/11/28 07:17:26;;;;;;;14.20;10.53;;;;;;;;;;5014257;28;20230;-83
2022/11/28 07:19:53;;;;;;;16.10;11.37;;;;;;;;;;5013595;28;20226;-82
2022/11/28 07:22:21;;;;;;;14.40;10.07;;;;;;;;;;5014579;28;20222;-82
2022/11/28 07:24:49;;;;;;;17.93;11.13;;;;;;;;;;5014213;28;20679;-81
2022/11/28 07:27:16;;;;;;;13.90;11.00;;;;;;;;;;5013761;28;20234;-82
2022/11/28 07:29:43;;;;;;;15.40;10.77;;;;;;;;;;5013960;28;20222;-82
2022/11/28 07:32:10;;;;;;;14.13;11.40;;;;;;;;;;5013531;28;20236;-82
2022/11/28 07:34:37;;;;;;;14.13;10.67;;;;;;;;;;5014100;28;20210;-82
2022/11/28 07:37:04;;;;;;;14.13;10.70;;;;;;;;;;5013463;28;20583;-82
2022/11/28 07:39:33;;;;;;;15.97;11.43;;;;;;;;;;5013558;28;20551;-82
2022/11/28 07:42:00;;;;;;;15.20;10.97;;;;;;;;;;5013399;28;20241;-82
2022/11/28 07:44:27;;;;;;;12.53;9.97;;;;;;;;;;5014165;28;20213;-82
2022/11/28 07:46:54;;;;;;;15.57;10.60;;;;;;;;;;5013371;28;20231;-83
2022/11/28 07:49:21;;;;;;;16.27;12.17;;;;;;;;;;5013530;28;20218;-83
2022/11/28 07:51:49;;;;;;;17.60;11.33;;;;;;;;;;5010271;28;20250;-83
2022/11/28 07:54:16;;;;;;;18.00;11.37;;;;;;;;;;4994359;28;20211;-83
2022/11/28 07:56:44;;;;;;;15.30;10.30;;;;;;;;;;4993628;28;20239;-83
2022/11/28 07:59:12;;;;;;;17.80;11.07;;;;;;;;;;4994129;28;20210;-83
2022/11/28 08:01:39;;;;;;;17.67;13.17;;;;;;;;;;4993738;28;20341;-85
2022/11/28 08:04:08;;;;;;;15.30;11.40;;;;;;;;;;4994389;28;20218;-84
2022/11/28 08:06:38;;;;;;;15.03;10.93;;;;;;;;;;4993472;28;20249;-84
2022/11/28 08:09:05;;;;;;;17.67;11.43;;;;;;;;;;4993838;28;20694;-85
2022/11/28 08:11:33;;;;;;;14.90;10.83;;;;;;;;;;4993622;28;20235;-83
2022/11/28 08:14:02;;;;;;;13.57;10.73;;;;;;;;;;4994242;28;20215;-83
2022/11/28 08:16:29;;;;;;;16.60;11.43;;;;;;;;;;4993572;28;20251;-83
2022/11/28 08:18:57;;;;;;;15.33;11.40;;;;;;;;;;4993800;28;20208;-84
2022/11/28 08:21:25;;;;;;;15.50;11.43;;;;;;;;;;4993573;28;20237;-83
2022/11/28 08:23:53;;;;;;;16.43;11.87;;;;;;;;;;4994133;28;20211;-87
2022/11/28 08:26:21;;;;;;;14.47;11.10;;;;;;;;;;5000071;28;20242;-87
2022/11/28 08:28:49;;;;;;;15.17;10.47;;;;;;;;;;5012577;28;20234;-84
2022/11/28 08:31:19;;;;;;;17.00;11.33;;;;;;;;;;5013155;28;20264;-83
2022/11/28 08:33:47;;;;;;;17.83;10.87;;;;;;;;;;5013266;28;20235;-83
2022/11/28 08:36:16;;;;;;;15.53;11.93;;;;;;;;;;5012694;28;20246;-83
2022/11/28 08:38:45;;;;;;;14.40;10.73;;;;;;;;;;5013416;28;20198;-83
2022/11/28 08:41:12;;;;;;;16.87;11.70;;;;;;;;;;5009141;28;20233;-82
2022/11/28 08:43:40;;;;;;;17.80;11.67;;;;;;;;;;5011568;28;20215;-84
2022/11/28 08:46:09;;;;;;;17.97;12.50;;;;;;;;;;5011711;28;20239;-83
2022/11/28 08:48:38;;;;;;;16.77;12.17;;;;;;;;;;5012668;28;20219;-88
2022/11/28 08:51:13;;;;;;;15.17;10.10;;;;;;;;;;5012573;28;20316;-83
2022/11/28 08:53:40;;;;;;;14.77;11.00;;;;;;;;;;5013096;28;20197;-82
2022/11/28 08:56:07;;;;;;;15.33;11.47;;;;;;;;;;5012077;28;20729;-83
2022/11/28 08:58:36;;;;;;;17.70;12.63;;;;;;;;;;5011602;28;20622;-84
2022/11/28 09:01:03;;;;;;;15.17;11.37;;;;;;;;;;5011336;28;20242;-83
2022/11/28 09:03:30;;;;;;;16.80;11.47;;;;;;;;;;5020117;28;20666;-83
2022/11/28 09:06:02;;;;;;;16.53;11.70;;;;;;;;;;4998743;28;20241;-83
2022/11/28 09:08:29;;;;;;;15.40;11.30;;;;;;;;;;5012464;28;20251;-82
2022/11/28 09:10:56;;;;;;;15.23;11.23;;;;;;;;;;4992384;28;20239;-83
2022/11/28 09:13:23;;;;;;;15.57;11.47;;;;;;;;;;4993102;28;20212;-85
2022/11/28 09:15:50;;;;;;;18.77;12.00;;;;;;;;;;4992677;28;20606;-85
2022/11/28 09:18:17;;;;;;;19.17;11.63;;;;;;;;;;5007571;28;20214;-82
2022/11/28 09:20:45;;;;;;;14.17;11.07;;;;;;;;;;5011886;28;20710;-82
2022/11/28 09:23:13;;;;;;;14.07;11.10;;;;;;;;;;5012336;28;20209;-83
2022/11/28 09:25:41;;;;;;;13.97;10.90;;;;;;;;;;5011822;28;20246;-83
2022/11/28 09:28:08;;;;;;;13.67;11.27;;;;;;;;;;5011241;28;20237;-83
2022/11/28 09:30:35;;;;;;;14.57;11.00;;;;;;;;;;5028618;28;20244;-82
2022/11/28 09:33:03;;;;;;;17.57;11.00;;;;;;;;;;5023011;28;20214;-83
2022/11/28 09:35:30;;;;;;;18.47;11.07;;;;;;;;;;5011372;28;20706;-82
2022/11/28 09:37:58;;;;;;;16.37;11.10;;;;;;;;;;4998842;28;20229;-83
2022/11/28 09:40:29;;;;;;;15.13;11.53;;;;;;;;;;4994042;28;20242;-83
2022/11/28 09:42:57;;;;;;;16.63;10.73;;;;;;;;;;5011068;28;20238;-82
2022/11/28 09:45:25;;;;;;;13.13;10.40;;;;;;;;;;5011583;28;20231;-83
2022/11/28 09:47:54;;;;;;;14.50;10.63;;;;;;;;;;5011934;28;20371;-85
2022/11/28 09:50:23;;;;;;;12.57;10.60;;;;;;;;;;5012220;28;20238;-84
2022/11/28 09:52:52;;;;;;;16.57;10.40;;;;;;;;;;4993426;28;20212;-84
2022/11/28 09:55:25;;;;;;;13.07;10.50;;;;;;;;;;4992381;28;20571;-83
2022/11/28 09:57:54;;;;;;;14.57;10.27;;;;;;;;;;4991799;28;20228;-83
2022/11/28 10:00:22;;;;;;;12.47;10.03;;;;;;;;;;4992101;28;20603;-83
2022/11/28 10:02:57;;;;;;;12.93;10.13;;;;;;;;;;5004389;28;20661;-82
2022/11/28 10:05:27;;;;;;;15.03;10.80;;;;;;;;;;5011375;28;20227;-85
2022/11/28 10:08:00;;;;;;;15.57;10.87;;;;;;;;;;5011368;28;20237;-84
2022/11/28 10:10:33;;;;;;;12.33;9.80;;;;;;;;;;5007512;28;20716;-83
2022/11/28 10:13:03;;;;;;;13.63;9.80;;;;;;;;;;5013112;28;20698;-84
2022/11/28 10:15:40;;;;;;;12.73;9.47;;;;;;;;;;5014430;28;20608;-84
2022/11/28 10:18:16;;;;;;;12.73;9.13;;;;;;;;;;5001938;28;20250;-83
2022/11/28 10:20:45;;;;;;;14.13;9.20;;;;;;;;;;5015508;28;20241;-84
2022/11/28 10:23:16;;;;;;;11.57;9.33;;;;;;;;;;5015605;28;20212;-84
2022/11/28 10:25:45;;;;;;;11.27;9.40;;;;;;;;;;5010304;28;20835;-83
2022/11/28 10:28:16;;;;;;;13.07;8.97;;;;;;;;;;5014517;28;20215;-85
2022/11/28 10:30:45;;;;;;;13.50;8.83;;;;;;;;;;5014787;28;20238;-84
2022/11/28 10:33:18;;;;;;;12.47;9.73;;;;;;;;;;5015028;28;20199;-85
2022/11/28 10:35:48;;;;;;;13.23;9.20;;;;;;;;;;5014328;28;20970;-84
2022/11/28 10:38:15;;;;;;;11.93;9.30;;;;;;;;;;5014990;28;20199;-84
2022/11/28 10:40:45;;;;;;;13.20;8.70;;;;;;;;;;5014412;28;20226;-84
2022/11/28 10:43:27;;;;;;;10.97;8.47;;;;;;;;;;5013917;28;20647;-85
2022/11/28 10:45:59;;;;;;;11.40;8.67;;;;;;;;;;5010590;28;20235;-86
2022/11/28 10:48:32;;;;;;;11.67;9.13;;;;;;;;;;5015689;28;20571;-84
2022/11/28 10:51:02;;;;;;;9.33;8.00;;;;;;;;;;5014530;28;20231;-84
2022/11/28 10:53:36;;;;;;;11.17;8.07;;;;;;;;;;5014574;28;20680;-85
2022/11/28 10:56:09;;;;;;;12.47;8.73;;;;;;;;;;5014159;28;20238;-86
2022/11/28 10:58:42;;;;;;;11.13;8.30;;;;;;;;;;5014627;28;20671;-84
2022/11/28 11:01:10;;;;;;;9.87;7.90;;;;;;;;;;5014353;28;20226;-84
2022/11/28 11:03:38;;;;;;;11.90;8.53;;;;;;;;;;5014516;28;20254;-84
2022/11/28 11:06:06;;;;;;;9.83;8.03;;;;;;;;;;5014061;28;20242;-82
2022/11/28 11:08:35;;;;;;;9.10;7.70;;;;;;;;;;5012699;28;20226;-83
2022/11/28 11:11:04;;;;;;;8.53;7.57;;;;;;;;;;5013838;28;20223;-82
2022/11/28 11:13:32;;;;;;;9.43;7.90;;;;;;;;;;5013796;28;20578;-83
2022/11/28 11:16:02;;;;;;;9.57;7.70;;;;;;;;;;5010039;28;20231;-83
2022/11/28 11:18:30;;;;;;;9.73;7.83;;;;;;;;;;5013286;28;20199;-82
2022/11/28 11:21:07;;;;;;;8.43;7.20;;;;;;;;;;5013891;28;20508;-82
2022/11/28 11:23:34;;;;;;;9.13;7.50;;;;;;;;;;5012690;28;20205;-82
2022/11/28 11:26:02;;;;;;;9.30;7.43;;;;;;;;;;5013210;28;20234;-82
2022/11/28 11:28:41;;;;;;;12.77;7.93;;;;;;;;;;5013272;28;20238;-82
2022/11/28 11:31:16;;;;;;;10.03;8.20;;;;;;;;;;5007251;28;20242;-82
2022/11/28 11:33:44;;;;;;;9.80;7.63;;;;;;;;;;5013997;28;20654;-82
2022/11/28 11:36:21;;;;;;;11.40;7.20;;;;;;;;;;5006385;28;20231;-82
2022/11/28 11:38:48;;;;;;;12.00;7.37;;;;;;;;;;5012604;28;20277;-82
2022/11/28 11:41:21;;;;;;;8.50;7.43;;;;;;;;;;5011626;28;20230;-82
2022/11/28 11:43:48;;;;;;;11.50;8.60;;;;;;;;;;5012906;28;20270;-82
2022/11/28 11:46:17;;;;;;;9.47;7.67;;;;;;;;;;5012100;28;20238;-81
2022/11/28 11:48:45;;;;;;;9.70;8.10;;;;;;;;;;5013272;28;20208;-82
2022/11/28 11:51:22;;;;;;;9.53;7.80;;;;;;;;;;5012972;28;20253;-83
2022/11/28 11:53:49;;;;;;;11.83;8.50;;;;;;;;;;5009839;28;20604;-82
2022/11/28 11:56:16;;;;;;;11.33;9.13;;;;;;;;;;5012701;28;20231;-81
2022/11/28 11:58:45;;;;;;;16.83;12.57;;;;;;;;;;5010719;28;20215;-80
2022/11/28 12:01:12;;;;;;;14.63;11.63;;;;;;;;;;5011619;28;20234;-80
2022/11/28 12:03:42;;;;;;;11.17;9.03;;;;;;;;;;5011535;28;20301;-81
2022/11/28 12:06:13;;;;;;;11.57;8.80;;;;;;;;;;5012346;28;20322;-82
2022/11/28 12:08:42;;;;;;;12.23;9.60;;;;;;;;;;5011694;28;20223;-81
2022/11/28 12:11:13;;;;;;;15.30;9.70;;;;;;;;;;5012423;28;20233;-80
2022/11/28 12:13:40;;;;;;;14.30;10.20;;;;;;;;;;5012957;28;20199;-81
2022/11/28 12:16:11;;;;;;;14.50;9.47;;;;;;;;;;5012351;28;20238;-82
2022/11/28 12:18:46;;;;;;;11.40;8.90;;;;;;;;;;5011883;28;20188;-81
2022/11/28 12:21:14;;;;;;;13.27;9.07;;;;;;;;;;5011709;28;20231;-81
2022/11/28 12:23:49;;;;;;;11.73;8.83;;;;;;;;;;5003201;28;20215;-82
2022/11/28 12:26:21;;;;;;;11.77;9.10;;;;;;;;;;5012010;28;20230;-81
2022/11/28 12:28:53;;;;;;;12.90;9.13;;;;;;;;;;5012222;28;20226;-82
2022/11/28 12:31:28;;;;;;;11.20;7.60;;;;;;;;;;5015307;28;20233;-80
2022/11/28 12:34:04;;;;;;;9.93;8.37;;;;;;;;;;5012129;28;20214;-80
2022/11/28 12:36:34;;;;;;;8.90;7.97;;;;;;;;;;5011530;28;20242;-81
2022/11/28 12:39:14;;;;;;;9.53;7.90;;;;;;;;;;5007011;28;20242;-81
2022/11/28 12:41:50;;;;;;;10.60;8.20;;;;;;;;;;5012088;28;20281;-81
2022/11/28 12:44:20;;;;;;;9.90;7.63;;;;;;;;;;5000232;28;20798;-81
2022/11/28 12:46:52;;;;;;;12.40;8.03;;;;;;;;;;5012374;28;20230;-80
2022/11/28 12:49:25;;;;;;;10.90;7.53;;;;;;;;;;5004956;28;20216;-80
2022/11/28 12:52:02;;;;;;;10.47;7.50;;;;;;;;;;5008785;28;20234;-80
2022/11/28 12:54:44;;;;;;;8.87;7.30;;;;;;;;;;5011986;28;20276;-81
2022/11/28 12:57:14;;;;;;;10.70;8.20;;;;;;;;;;5011292;28;20235;-80
2022/11/28 12:59:45;;;;;;;9.03;8.07;;;;;;;;;;5013116;28;20203;-81
2022/11/28 13:02:22;;;;;;;9.37;7.60;;;;;;;;;;5011933;28;20243;-81
2022/11/28 13:04:55;;;;;;;9.93;7.60;;;;;;;;;;4992258;28;20208;-81
2022/11/28 13:07:26;;;;;;;8.50;7.27;;;;;;;;;;5007673;28;20231;-81
2022/11/28 13:10:00;;;;;;;8.60;7.17;;;;;;;;;;5011155;28;20238;-81
2022/11/28 13:12:30;;;;;;;9.43;7.03;;;;;;;;;;5011743;28;20198;-81
2022/11/28 13:14:58;;;;;;;9.10;7.03;;;;;;;;;;5017597;28;20230;-81
2022/11/28 13:17:34;;;;;;;8.67;7.17;;;;;;;;;;5017600;28;20227;-80
2022/11/28 13:20:08;;;;;;;11.73;7.87;;;;;;;;;;5002274;28;20199;-82
2022/11/28 13:22:50;;;;;;;9.57;7.77;;;;;;;;;;5014388;28;20696;-82
2022/11/28 13:25:23;;;;;;;10.23;8.33;;;;;;;;;;4999313;28;20254;-82
2022/11/28 13:27:53;;;;;;;14.53;9.33;;;;;;;;;;5007024;28;20865;-83
2022/11/28 13:30:21;;;;;;;12.53;9.13;;;;;;;;;;5004523;28;20239;-84
2022/11/28 13:32:52;;;;;;;14.83;10.10;;;;;;;;;;5012610;28;20211;-82
2022/11/28 13:35:20;;;;;;;14.13;10.87;;;;;;;;;;5031279;28;20234;-83
2022/11/28 13:37:52;;;;;;;12.17;10.53;;;;;;;;;;5031314;28;20231;-83
2022/11/28 13:40:25;;;;;;;13.20;10.43;;;;;;;;;;5011315;28;20238;-84
2022/11/28 13:42:56;;;;;;;14.70;10.87;;;;;;;;;;5011000;28;20208;-81
2022/11/28 13:45:24;;;;;;;13.33;10.00;;;;;;;;;;5011435;28;20231;-81
2022/11/28 13:47:51;;;;;;;13.17;10.73;;;;;;;;;;5004983;28;20227;-81
2022/11/28 13:50:37;;;;;;;15.03;10.53;;;;;;;;;;5017240;28;20230;-83
2022/11/28 13:53:20;;;;;;;14.90;11.13;;;;;;;;;;5015920;28;20203;-82
2022/11/28 13:55:48;;;;;;;12.77;10.03;;;;;;;;;;5012451;28;20238;-83
2022/11/28 13:58:19;;;;;;;13.90;10.43;;;;;;;;;;5014855;28;20207;-82
2022/11/28 14:00:59;;;;;;;16.07;11.07;;;;;;;;;;5016188;28;20231;-83
2022/11/28 14:03:27;;;;;;;16.63;11.60;;;;;;;;;;5015312;28;20195;-83
2022/11/28 14:05:57;;;;;;;12.33;10.27;;;;;;;;;;5014456;28;20231;-83
2022/11/28 14:08:28;;;;;;;13.03;10.20;;;;;;;;;;5015571;28;20195;-83
2022/11/28 14:11:06;;;;;;;12.57;10.00;;;;;;;;;;5015368;28;20242;-83
2022/11/28 14:13:42;;;;;;;11.37;9.47;;;;;;;;;;5015582;28;20192;-83
2022/11/28 14:16:15;;;;;;;14.90;9.97;;;;;;;;;;5014829;28;20243;-83
2022/11/28 14:18:52;;;;;;;12.30;10.43;;;;;;;;;;5014736;28;20203;-82
2022/11/28 14:21:25;;;;;;;15.63;10.90;;;;;;;;;;5014600;28;20234;-83
2022/11/28 14:23:55;;;;;;;12.87;9.90;;;;;;;;;;5015129;28;20311;-83
2022/11/28 14:26:24;;;;;;;14.20;10.70;;;;;;;;;;5003081;28;20239;-83
2022/11/28 14:28:52;;;;;;;18.10;11.63;;;;;;;;;;4995041;28;20712;-83
2022/11/28 14:31:24;;;;;;;14.57;10.60;;;;;;;;;;5008507;28;20243;-83
2022/11/28 14:33:57;;;;;;;13.07;10.80;;;;;;;;;;5015238;28;20204;-84
2022/11/28 14:36:27;;;;;;;17.37;11.43;;;;;;;;;;5012318;28;20243;-83
2022/11/28 14:39:01;;;;;;;13.77;10.93;;;;;;;;;;5014718;28;20647;-83